PWSweather.com
Personal Weather Stations
Station Observations
MAGOO
Kiefer, OK 74041

Kiefer, OK 74041

Lat: 35.9417305, Lon: -96.03782654

Elevation: 699

Station Type: WMR100N

Latest ConditionsUpdated 2:15:00 AM CDT Friday, Jul 31, 2015
Currently Today's Max Today's Min Today's Average
Temperature 78.7°F25.9°C 81.1°F27.3°C 78.1°F25.6°C 79.5°F26.4°C
Dew Point 59.3°F15.2°C 60.4°F15.8°C 52.0°F11.1°C 56.0°F13.3°C
Winds Calm Calm 2.0 mph ENE3.2 kmh ENE - 0.7 mph 1.1 kmh
Wind Gusts -- 3.0 mph4.8 kmh - -
Humidity 96% 97% 81% 89%
Pressure 30.02 in1016.6 mb 30.05 in1017.6 mb 30.02 in1016.6 mb -
Hour Temp Dew Point Humidity Winds Wind Gusts Pressure Precip Precip Rate Daily Precip Total
02:15 AM 78.7°F25.9°C 59.3°F15.2°C 96% Calm Calm -- 30.02 in1016.6 mb 0.00 in0.0 mm 0.00 in0.0 mm 0.00 in0.0 mm
02:10 AM 78.4°F25.8°C 57.7°F14.3°C 93% Calm Calm 1.0 mph1.6 kmh 30.04 in1017.3 mb 0.00 in0.0 mm 0.00 in0.0 mm 0.00 in0.0 mm
02:05 AM 78.7°F25.9°C 57.9°F14.4°C 93% Calm Calm -- 30.05 in1017.6 mb 0.00 in0.0 mm 0.00 in0.0 mm 0.00 in0.0 mm
02:00 AM 79.1°F26.2°C 58.9°F14.9°C 94% 1.0 mph 1.6 kmh 2.0 mph3.2 kmh 30.05 in1017.6 mb 0.00 in0.0 mm 0.00 in0.0 mm 0.00 in0.0 mm
01:55 AM 79.2°F26.2°C 60.4°F15.8°C 97% Calm Calm 1.0 mph1.6 kmh 30.05 in1017.6 mb 0.00 in0.0 mm 0.00 in0.0 mm 0.00 in0.0 mm
01:50 AM 78.8°F26.0°C 60.0°F15.6°C 96% 1.0 mph NNE1.6 kmh NNE 2.0 mph3.2 kmh 30.05 in1017.6 mb 0.00 in0.0 mm 0.00 in0.0 mm 0.00 in0.0 mm
01:45 AM 78.5°F25.8°C 57.9°F14.4°C 93% 2.0 mph NW3.2 kmh NW 3.0 mph4.8 kmh 30.05 in1017.6 mb 0.00 in0.0 mm 0.00 in0.0 mm 0.00 in0.0 mm
01:40 AM 78.7°F25.9°C 58.3°F14.6°C 94% 1.0 mph NW1.6 kmh NW 3.0 mph4.8 kmh 30.05 in1017.6 mb 0.00 in0.0 mm 0.00 in0.0 mm 0.00 in0.0 mm
01:35 AM 78.9°F26.1°C 60.2°F15.7°C 97% Calm Calm -- 30.05 in1017.6 mb 0.00 in0.0 mm 0.00 in0.0 mm 0.00 in0.0 mm
01:30 AM 78.1°F25.6°C 57.2°F14.0°C 93% Calm Calm 2.0 mph3.2 kmh 30.05 in1017.6 mb 0.00 in0.0 mm 0.00 in0.0 mm 0.00 in0.0 mm
01:25 AM 78.1°F25.6°C 56.1°F13.4°C 91% 1.0 mph SW1.6 kmh SW 2.0 mph3.2 kmh 30.05 in1017.6 mb 0.00 in0.0 mm 0.00 in0.0 mm 0.00 in0.0 mm
01:20 AM 78.3°F25.7°C 55.7°F13.2°C 90% 2.0 mph SW3.2 kmh SW 2.0 mph3.2 kmh 30.05 in1017.6 mb 0.00 in0.0 mm 0.00 in0.0 mm 0.00 in0.0 mm
01:15 AM 78.7°F25.9°C 54.9°F12.7°C 88% 1.0 mph SW1.6 kmh SW 2.0 mph3.2 kmh 30.05 in1017.6 mb 0.00 in0.0 mm 0.00 in0.0 mm 0.00 in0.0 mm
01:10 AM 79.5°F26.4°C 55.8°F13.2°C 88% Calm Calm 2.0 mph3.2 kmh 30.03 in1016.9 mb 0.00 in0.0 mm 0.00 in0.0 mm 0.00 in0.0 mm
01:05 AM 79.7°F26.5°C 56.0°F13.3°C 88% Calm Calm -- 30.02 in1016.6 mb 0.00 in0.0 mm 0.00 in0.0 mm 0.00 in0.0 mm
01:00 AM 79.4°F26.3°C 54.3°F12.4°C 86% Calm Calm 1.0 mph1.6 kmh 30.02 in1016.6 mb 0.00 in0.0 mm 0.00 in0.0 mm 0.00 in0.0 mm
12:55 AM 79.7°F26.5°C 53.9°F12.2°C 85% 1.0 mph ENE1.6 kmh ENE 2.0 mph3.2 kmh 30.02 in1016.6 mb 0.00 in0.0 mm 0.00 in0.0 mm 0.00 in0.0 mm
12:50 AM 80.1°F26.7°C 54.2°F12.3°C 85% 1.0 mph ENE1.6 kmh ENE 2.0 mph3.2 kmh 30.02 in1016.6 mb 0.00 in0.0 mm 0.00 in0.0 mm 0.00 in0.0 mm
12:45 AM 80.4°F26.9°C 54.8°F12.7°C 85% 1.0 mph ENE1.6 kmh ENE 2.0 mph3.2 kmh 30.02 in1016.6 mb 0.00 in0.0 mm 0.00 in0.0 mm 0.00 in0.0 mm
12:40 AM 80.6°F27.0°C 55.9°F13.3°C 87% Calm Calm 2.0 mph3.2 kmh 30.04 in1017.3 mb 0.00 in0.0 mm 0.00 in0.0 mm 0.00 in0.0 mm
12:35 AM 80.0°F26.7°C 54.3°F12.4°C 85% Calm Calm -- 30.05 in1017.6 mb 0.00 in0.0 mm 0.00 in0.0 mm 0.00 in0.0 mm
12:30 AM 80.0°F26.7°C 53.5°F11.9°C 84% Calm Calm -- 30.05 in1017.6 mb 0.00 in0.0 mm 0.00 in0.0 mm 0.00 in0.0 mm
12:25 AM 80.5°F26.9°C 53.7°F12.1°C 84% Calm Calm 1.0 mph1.6 kmh 30.05 in1017.6 mb 0.00 in0.0 mm 0.00 in0.0 mm 0.00 in0.0 mm
12:20 AM 80.9°F27.2°C 54.3°F12.4°C 84% 1.0 mph E1.6 kmh E 2.0 mph3.2 kmh 30.05 in1017.6 mb 0.00 in0.0 mm 0.00 in0.0 mm 0.00 in0.0 mm
12:15 AM 80.9°F27.2°C 54.8°F12.7°C 85% 1.0 mph E1.6 kmh E 2.0 mph3.2 kmh 30.05 in1017.6 mb 0.00 in0.0 mm 0.00 in0.0 mm 0.00 in0.0 mm
12:10 AM 80.5°F26.9°C 52.8°F11.6°C 82% 2.0 mph NE3.2 kmh NE 3.0 mph4.8 kmh 30.05 in1017.6 mb 0.00 in0.0 mm 0.00 in0.0 mm 0.00 in0.0 mm
12:05 AM 80.7°F27.1°C 52.0°F11.1°C 81% 2.0 mph NE3.2 kmh NE 3.0 mph4.8 kmh 30.05 in1017.6 mb 0.00 in0.0 mm 0.00 in0.0 mm 0.00 in0.0 mm
12:00 AM 81.1°F27.3°C 52.3°F11.3°C 81% 2.0 mph ENE3.2 kmh ENE 3.0 mph4.8 kmh 30.05 in1017.6 mb 0.00 in0.0 mm 0.00 in0.0 mm 0.00 in0.0 mm